sensor_id;sensor_type;location;lat;lon;timestamp;P1;durP1;ratioP1;P2;durP2;ratioP2
51883;SDS011;37915;53.254;6.598;2023-07-13T00:00:24;10.35;;;2.67;;
51883;SDS011;37915;53.254;6.598;2023-07-13T00:02:50;15.43;;;3.20;;
51883;SDS011;37915;53.254;6.598;2023-07-13T00:05:19;10.82;;;2.83;;
51883;SDS011;37915;53.254;6.598;2023-07-13T00:07:45;12.43;;;3.17;;
51883;SDS011;37915;53.254;6.598;2023-07-13T00:10:11;11.43;;;2.70;;
51883;SDS011;37915;53.254;6.598;2023-07-13T00:12:37;8.30;;;2.97;;
51883;SDS011;37915;53.254;6.598;2023-07-13T00:15:05;14.98;;;3.15;;
51883;SDS011;37915;53.254;6.598;2023-07-13T00:17:33;9.63;;;3.47;;
51883;SDS011;37915;53.254;6.598;2023-07-13T00:19:59;13.95;;;3.60;;
51883;SDS011;37915;53.254;6.598;2023-07-13T00:22:24;15.10;;;3.25;;
51883;SDS011;37915;53.254;6.598;2023-07-13T00:24:51;14.70;;;4.03;;
51883;SDS011;37915;53.254;6.598;2023-07-13T00:27:18;12.15;;;3.15;;
51883;SDS011;37915;53.254;6.598;2023-07-13T00:29:44;11.18;;;3.35;;
51883;SDS011;37915;53.254;6.598;2023-07-13T00:32:10;11.65;;;2.90;;
51883;SDS011;37915;53.254;6.598;2023-07-13T00:34:37;11.93;;;3.17;;
51883;SDS011;37915;53.254;6.598;2023-07-13T00:37:03;8.52;;;2.58;;
51883;SDS011;37915;53.254;6.598;2023-07-13T00:39:31;10.70;;;3.30;;
51883;SDS011;37915;53.254;6.598;2023-07-13T00:42:01;13.05;;;3.13;;
51883;SDS011;37915;53.254;6.598;2023-07-13T00:44:29;10.32;;;3.15;;
51883;SDS011;37915;53.254;6.598;2023-07-13T00:46:55;8.68;;;2.60;;
51883;SDS011;37915;53.254;6.598;2023-07-13T00:49:23;11.77;;;3.33;;
51883;SDS011;37915;53.254;6.598;2023-07-13T00:51:55;14.32;;;3.45;;
51883;SDS011;37915;53.254;6.598;2023-07-13T00:54:29;10.10;;;3.30;;
51883;SDS011;37915;53.254;6.598;2023-07-13T00:57:03;10.48;;;3.38;;
51883;SDS011;37915;53.254;6.598;2023-07-13T00:59:31;10.30;;;3.22;;
51883;SDS011;37915;53.254;6.598;2023-07-13T01:01:59;12.50;;;3.72;;
51883;SDS011;37915;53.254;6.598;2023-07-13T01:04:26;13.88;;;3.53;;
51883;SDS011;37915;53.254;6.598;2023-07-13T01:06:52;14.63;;;4.10;;
51883;SDS011;37915;53.254;6.598;2023-07-13T01:09:18;13.27;;;3.20;;
51883;SDS011;37915;53.254;6.598;2023-07-13T01:11:45;10.35;;;3.22;;
51883;SDS011;37915;53.254;6.598;2023-07-13T01:14:11;12.23;;;3.28;;
51883;SDS011;37915;53.254;6.598;2023-07-13T01:16:37;10.32;;;3.33;;
51883;SDS011;37915;53.254;6.598;2023-07-13T01:19:08;11.55;;;3.45;;
51883;SDS011;37915;53.254;6.598;2023-07-13T01:22:01;9.98;;;3.15;;
51883;SDS011;37915;53.254;6.598;2023-07-13T01:24:27;10.55;;;3.47;;
51883;SDS011;37915;53.254;6.598;2023-07-13T01:26:53;14.80;;;3.70;;
51883;SDS011;37915;53.254;6.598;2023-07-13T01:29:18;11.23;;;3.08;;
51883;SDS011;37915;53.254;6.598;2023-07-13T01:31:44;12.32;;;3.67;;
51883;SDS011;37915;53.254;6.598;2023-07-13T01:34:10;10.10;;;3.53;;
51883;SDS011;37915;53.254;6.598;2023-07-13T01:36:36;12.73;;;3.47;;
51883;SDS011;37915;53.254;6.598;2023-07-13T01:39:02;11.93;;;3.30;;
51883;SDS011;37915;53.254;6.598;2023-07-13T01:41:28;9.18;;;2.80;;
51883;SDS011;37915;53.254;6.598;2023-07-13T01:43:54;10.63;;;3.38;;
51883;SDS011;37915;53.254;6.598;2023-07-13T01:46:19;13.82;;;3.97;;
51883;SDS011;37915;53.254;6.598;2023-07-13T01:48:45;8.73;;;3.03;;
51883;SDS011;37915;53.254;6.598;2023-07-13T01:51:11;11.40;;;3.40;;
51883;SDS011;37915;53.254;6.598;2023-07-13T01:53:37;8.68;;;3.03;;
51883;SDS011;37915;53.254;6.598;2023-07-13T01:56:03;7.20;;;2.30;;
51883;SDS011;37915;53.254;6.598;2023-07-13T01:58:28;10.05;;;3.10;;
51883;SDS011;37915;53.254;6.598;2023-07-13T02:00:54;7.13;;;2.50;;
51883;SDS011;37915;53.254;6.598;2023-07-13T02:03:20;9.18;;;3.05;;
51883;SDS011;37915;53.254;6.598;2023-07-13T02:05:45;9.65;;;3.00;;
51883;SDS011;37915;53.254;6.598;2023-07-13T02:08:11;8.18;;;2.58;;
51883;SDS011;37915;53.254;6.598;2023-07-13T02:10:37;8.73;;;2.40;;
51883;SDS011;37915;53.254;6.598;2023-07-13T02:13:04;11.88;;;2.60;;
51883;SDS011;37915;53.254;6.598;2023-07-13T02:15:31;10.40;;;2.60;;
51883;SDS011;37915;53.254;6.598;2023-07-13T02:17:56;10.65;;;2.67;;
51883;SDS011;37915;53.254;6.598;2023-07-13T02:20:23;9.80;;;2.30;;
51883;SDS011;37915;53.254;6.598;2023-07-13T02:22:49;10.82;;;2.40;;
51883;SDS011;37915;53.254;6.598;2023-07-13T02:25:15;9.05;;;2.30;;
51883;SDS011;37915;53.254;6.598;2023-07-13T02:27:41;6.85;;;2.33;;
51883;SDS011;37915;53.254;6.598;2023-07-13T02:30:07;7.15;;;2.42;;
51883;SDS011;37915;53.254;6.598;2023-07-13T02:32:33;11.65;;;2.70;;
51883;SDS011;37915;53.254;6.598;2023-07-13T02:34:59;11.65;;;2.75;;
51883;SDS011;37915;53.254;6.598;2023-07-13T02:37:24;10.77;;;2.88;;
51883;SDS011;37915;53.254;6.598;2023-07-13T02:39:50;7.40;;;2.33;;
51883;SDS011;37915;53.254;6.598;2023-07-13T02:42:16;6.78;;;1.88;;
51883;SDS011;37915;53.254;6.598;2023-07-13T02:44:41;12.55;;;2.28;;
51883;SDS011;37915;53.254;6.598;2023-07-13T02:47:07;7.80;;;2.03;;
51883;SDS011;37915;53.254;6.598;2023-07-13T02:49:33;5.78;;;1.70;;
51883;SDS011;37915;53.254;6.598;2023-07-13T02:51:59;6.72;;;1.95;;
51883;SDS011;37915;53.254;6.598;2023-07-13T02:54:24;6.65;;;2.38;;
51883;SDS011;37915;53.254;6.598;2023-07-13T02:56:50;9.38;;;2.50;;
51883;SDS011;37915;53.254;6.598;2023-07-13T02:59:16;9.43;;;2.78;;
51883;SDS011;37915;53.254;6.598;2023-07-13T03:01:41;7.05;;;2.38;;
51883;SDS011;37915;53.254;6.598;2023-07-13T03:04:07;7.70;;;2.80;;
51883;SDS011;37915;53.254;6.598;2023-07-13T03:06:33;8.32;;;2.92;;
51883;SDS011;37915;53.254;6.598;2023-07-13T03:08:58;8.70;;;3.25;;
51883;SDS011;37915;53.254;6.598;2023-07-13T03:11:25;9.77;;;2.53;;
51883;SDS011;37915;53.254;6.598;2023-07-13T03:13:51;9.57;;;3.05;;
51883;SDS011;37915;53.254;6.598;2023-07-13T03:16:17;5.85;;;2.85;;
51883;SDS011;37915;53.254;6.598;2023-07-13T03:18:43;11.27;;;2.78;;
51883;SDS011;37915;53.254;6.598;2023-07-13T03:21:09;10.32;;;2.95;;
51883;SDS011;37915;53.254;6.598;2023-07-13T03:23:35;8.70;;;3.17;;
51883;SDS011;37915;53.254;6.598;2023-07-13T03:26:06;13.40;;;4.22;;
51883;SDS011;37915;53.254;6.598;2023-07-13T03:28:50;8.93;;;3.17;;
51883;SDS011;37915;53.254;6.598;2023-07-13T03:31:17;11.75;;;4.32;;
51883;SDS011;37915;53.254;6.598;2023-07-13T03:33:45;11.40;;;3.15;;
51883;SDS011;37915;53.254;6.598;2023-07-13T03:36:14;10.43;;;3.88;;
51883;SDS011;37915;53.254;6.598;2023-07-13T03:38:45;12.38;;;3.30;;
51883;SDS011;37915;53.254;6.598;2023-07-13T03:41:15;11.25;;;3.78;;
51883;SDS011;37915;53.254;6.598;2023-07-13T03:43:41;14.10;;;3.83;;
51883;SDS011;37915;53.254;6.598;2023-07-13T03:46:07;13.13;;;3.42;;
51883;SDS011;37915;53.254;6.598;2023-07-13T03:48:33;12.02;;;3.40;;
51883;SDS011;37915;53.254;6.598;2023-07-13T03:50:59;12.98;;;3.47;;
51883;SDS011;37915;53.254;6.598;2023-07-13T03:53:25;13.32;;;3.58;;
51883;SDS011;37915;53.254;6.598;2023-07-13T03:55:51;12.13;;;3.40;;
51883;SDS011;37915;53.254;6.598;2023-07-13T03:58:27;10.60;;;3.35;;
51883;SDS011;37915;53.254;6.598;2023-07-13T04:01:02;11.43;;;3.33;;
51883;SDS011;37915;53.254;6.598;2023-07-13T04:03:30;12.20;;;3.90;;
51883;SDS011;37915;53.254;6.598;2023-07-13T04:05:58;13.10;;;3.72;;
51883;SDS011;37915;53.254;6.598;2023-07-13T04:08:31;20.58;;;3.50;;
51883;SDS011;37915;53.254;6.598;2023-07-13T04:10:59;10.65;;;3.33;;
51883;SDS011;37915;53.254;6.598;2023-07-13T04:13:25;12.25;;;3.35;;
51883;SDS011;37915;53.254;6.598;2023-07-13T04:15:52;15.15;;;4.22;;
51883;SDS011;37915;53.254;6.598;2023-07-13T04:18:18;12.93;;;3.83;;
51883;SDS011;37915;53.254;6.598;2023-07-13T04:20:45;16.40;;;3.75;;
51883;SDS011;37915;53.254;6.598;2023-07-13T04:23:11;10.68;;;3.00;;
51883;SDS011;37915;53.254;6.598;2023-07-13T04:25:37;12.40;;;3.65;;
51883;SDS011;37915;53.254;6.598;2023-07-13T04:28:03;14.18;;;3.30;;
51883;SDS011;37915;53.254;6.598;2023-07-13T04:30:29;13.00;;;2.95;;
51883;SDS011;37915;53.254;6.598;2023-07-13T04:32:55;9.98;;;3.60;;
51883;SDS011;37915;53.254;6.598;2023-07-13T04:35:21;13.55;;;3.65;;
51883;SDS011;37915;53.254;6.598;2023-07-13T04:37:48;15.15;;;4.15;;
51883;SDS011;37915;53.254;6.598;2023-07-13T04:40:15;11.43;;;3.75;;
51883;SDS011;37915;53.254;6.598;2023-07-13T04:42:42;17.95;;;3.75;;
51883;SDS011;37915;53.254;6.598;2023-07-13T04:45:10;11.32;;;3.50;;
51883;SDS011;37915;53.254;6.598;2023-07-13T04:47:36;16.45;;;4.25;;
51883;SDS011;37915;53.254;6.598;2023-07-13T04:50:02;13.82;;;4.28;;
51883;SDS011;37915;53.254;6.598;2023-07-13T04:52:28;16.17;;;4.60;;
51883;SDS011;37915;53.254;6.598;2023-07-13T04:54:53;16.15;;;3.78;;
51883;SDS011;37915;53.254;6.598;2023-07-13T04:57:19;14.82;;;4.38;;
51883;SDS011;37915;53.254;6.598;2023-07-13T04:59:45;14.23;;;3.90;;
51883;SDS011;37915;53.254;6.598;2023-07-13T05:02:11;11.48;;;3.63;;
51883;SDS011;37915;53.254;6.598;2023-07-13T05:04:36;14.85;;;4.18;;
51883;SDS011;37915;53.254;6.598;2023-07-13T05:07:02;16.45;;;4.45;;
51883;SDS011;37915;53.254;6.598;2023-07-13T05:09:28;15.32;;;3.90;;
51883;SDS011;37915;53.254;6.598;2023-07-13T05:11:54;14.50;;;3.60;;
51883;SDS011;37915;53.254;6.598;2023-07-13T05:14:19;13.10;;;4.25;;
51883;SDS011;37915;53.254;6.598;2023-07-13T05:16:45;9.30;;;2.85;;
51883;SDS011;37915;53.254;6.598;2023-07-13T05:19:11;11.32;;;3.47;;
51883;SDS011;37915;53.254;6.598;2023-07-13T05:21:37;11.13;;;2.97;;
51883;SDS011;37915;53.254;6.598;2023-07-13T05:24:03;10.00;;;3.30;;
51883;SDS011;37915;53.254;6.598;2023-07-13T05:26:29;12.27;;;3.28;;
51883;SDS011;37915;53.254;6.598;2023-07-13T05:28:55;11.75;;;3.40;;
51883;SDS011;37915;53.254;6.598;2023-07-13T05:31:21;13.60;;;4.22;;
51883;SDS011;37915;53.254;6.598;2023-07-13T05:33:46;9.63;;;3.63;;
51883;SDS011;37915;53.254;6.598;2023-07-13T05:36:12;11.77;;;3.70;;
51883;SDS011;37915;53.254;6.598;2023-07-13T05:38:38;13.32;;;3.65;;
51883;SDS011;37915;53.254;6.598;2023-07-13T05:41:03;14.90;;;3.22;;
51883;SDS011;37915;53.254;6.598;2023-07-13T05:43:29;12.25;;;3.10;;
51883;SDS011;37915;53.254;6.598;2023-07-13T05:45:55;11.15;;;3.60;;
51883;SDS011;37915;53.254;6.598;2023-07-13T05:48:22;12.48;;;3.88;;
51883;SDS011;37915;53.254;6.598;2023-07-13T05:50:48;13.32;;;3.10;;
51883;SDS011;37915;53.254;6.598;2023-07-13T05:53:14;12.80;;;3.40;;
51883;SDS011;37915;53.254;6.598;2023-07-13T05:55:41;10.05;;;3.55;;
51883;SDS011;37915;53.254;6.598;2023-07-13T05:58:12;13.20;;;3.38;;
51883;SDS011;37915;53.254;6.598;2023-07-13T06:00:39;11.18;;;3.70;;
51883;SDS011;37915;53.254;6.598;2023-07-13T06:03:05;11.10;;;3.15;;
51883;SDS011;37915;53.254;6.598;2023-07-13T06:05:32;8.43;;;2.83;;
51883;SDS011;37915;53.254;6.598;2023-07-13T06:07:59;10.32;;;3.20;;
51883;SDS011;37915;53.254;6.598;2023-07-13T06:10:25;7.32;;;3.03;;
51883;SDS011;37915;53.254;6.598;2023-07-13T06:12:51;10.85;;;3.40;;
51883;SDS011;37915;53.254;6.598;2023-07-13T06:15:16;11.60;;;2.88;;
51883;SDS011;37915;53.254;6.598;2023-07-13T06:17:42;8.23;;;3.10;;
51883;SDS011;37915;53.254;6.598;2023-07-13T06:20:09;9.90;;;3.70;;
51883;SDS011;37915;53.254;6.598;2023-07-13T06:22:35;8.77;;;2.88;;
51883;SDS011;37915;53.254;6.598;2023-07-13T06:25:01;12.02;;;2.95;;
51883;SDS011;37915;53.254;6.598;2023-07-13T06:27:27;12.38;;;3.25;;
51883;SDS011;37915;53.254;6.598;2023-07-13T06:29:52;6.43;;;2.67;;
51883;SDS011;37915;53.254;6.598;2023-07-13T06:32:18;13.30;;;3.05;;
51883;SDS011;37915;53.254;6.598;2023-07-13T06:34:44;13.95;;;3.88;;
51883;SDS011;37915;53.254;6.598;2023-07-13T06:37:10;6.93;;;2.00;;
51883;SDS011;37915;53.254;6.598;2023-07-13T06:39:36;10.63;;;2.40;;
51883;SDS011;37915;53.254;6.598;2023-07-13T06:42:02;10.00;;;2.63;;
51883;SDS011;37915;53.254;6.598;2023-07-13T06:44:28;10.32;;;2.28;;
51883;SDS011;37915;53.254;6.598;2023-07-13T06:46:53;8.13;;;2.78;;
51883;SDS011;37915;53.254;6.598;2023-07-13T06:49:19;7.03;;;2.58;;
51883;SDS011;37915;53.254;6.598;2023-07-13T06:51:45;10.25;;;2.63;;
51883;SDS011;37915;53.254;6.598;2023-07-13T06:54:10;8.38;;;3.05;;
51883;SDS011;37915;53.254;6.598;2023-07-13T06:56:36;8.95;;;2.90;;
51883;SDS011;37915;53.254;6.598;2023-07-13T06:59:02;23.63;;;3.63;;
51883;SDS011;37915;53.254;6.598;2023-07-13T07:01:27;8.60;;;2.20;;
51883;SDS011;37915;53.254;6.598;2023-07-13T07:03:53;6.53;;;2.55;;
51883;SDS011;37915;53.254;6.598;2023-07-13T07:06:20;11.02;;;2.53;;
51883;SDS011;37915;53.254;6.598;2023-07-13T07:08:50;6.82;;;2.13;;
51883;SDS011;37915;53.254;6.598;2023-07-13T07:11:18;11.77;;;2.25;;
51883;SDS011;37915;53.254;6.598;2023-07-13T07:13:50;6.70;;;2.00;;
51883;SDS011;37915;53.254;6.598;2023-07-13T07:16:16;7.80;;;2.28;;
51883;SDS011;37915;53.254;6.598;2023-07-13T07:18:43;7.95;;;2.30;;
51883;SDS011;37915;53.254;6.598;2023-07-13T07:21:09;8.80;;;2.10;;
51883;SDS011;37915;53.254;6.598;2023-07-13T07:23:35;7.38;;;2.10;;
51883;SDS011;37915;53.254;6.598;2023-07-13T07:26:01;7.72;;;2.22;;
51883;SDS011;37915;53.254;6.598;2023-07-13T07:28:27;10.23;;;2.67;;
51883;SDS011;37915;53.254;6.598;2023-07-13T07:30:54;8.68;;;2.13;;
51883;SDS011;37915;53.254;6.598;2023-07-13T07:33:21;5.55;;;2.00;;
51883;SDS011;37915;53.254;6.598;2023-07-13T07:35:47;5.75;;;1.40;;
51883;SDS011;37915;53.254;6.598;2023-07-13T07:38:13;4.80;;;1.90;;
51883;SDS011;37915;53.254;6.598;2023-07-13T07:40:39;9.02;;;2.20;;
51883;SDS011;37915;53.254;6.598;2023-07-13T07:43:10;6.55;;;1.70;;
51883;SDS011;37915;53.254;6.598;2023-07-13T07:45:37;6.65;;;1.98;;
51883;SDS011;37915;53.254;6.598;2023-07-13T07:48:04;5.00;;;1.95;;
51883;SDS011;37915;53.254;6.598;2023-07-13T07:50:30;5.95;;;1.98;;
51883;SDS011;37915;53.254;6.598;2023-07-13T07:52:57;5.75;;;2.10;;
51883;SDS011;37915;53.254;6.598;2023-07-13T07:55:23;4.65;;;1.77;;
51883;SDS011;37915;53.254;6.598;2023-07-13T07:57:50;5.00;;;1.60;;
51883;SDS011;37915;53.254;6.598;2023-07-13T08:00:16;6.65;;;2.20;;
51883;SDS011;37915;53.254;6.598;2023-07-13T08:02:43;7.25;;;1.90;;
51883;SDS011;37915;53.254;6.598;2023-07-13T08:05:09;5.97;;;1.80;;
51883;SDS011;37915;53.254;6.598;2023-07-13T08:07:36;9.27;;;2.92;;
51883;SDS011;37915;53.254;6.598;2023-07-13T08:10:03;9.55;;;2.42;;
51883;SDS011;37915;53.254;6.598;2023-07-13T08:12:29;8.65;;;2.45;;
51883;SDS011;37915;53.254;6.598;2023-07-13T08:14:54;9.45;;;2.20;;
51883;SDS011;37915;53.254;6.598;2023-07-13T08:17:22;6.32;;;1.90;;
51883;SDS011;37915;53.254;6.598;2023-07-13T08:19:49;4.93;;;1.77;;
51883;SDS011;37915;53.254;6.598;2023-07-13T08:22:15;4.28;;;1.58;;
51883;SDS011;37915;53.254;6.598;2023-07-13T08:24:41;5.75;;;1.67;;
51883;SDS011;37915;53.254;6.598;2023-07-13T08:27:08;6.22;;;1.67;;
51883;SDS011;37915;53.254;6.598;2023-07-13T08:29:33;6.38;;;1.50;;
51883;SDS011;37915;53.254;6.598;2023-07-13T08:31:59;4.50;;;1.67;;
51883;SDS011;37915;53.254;6.598;2023-07-13T08:34:25;4.60;;;1.60;;
51883;SDS011;37915;53.254;6.598;2023-07-13T08:36:51;3.55;;;1.38;;
51883;SDS011;37915;53.254;6.598;2023-07-13T08:39:16;6.53;;;2.00;;
51883;SDS011;37915;53.254;6.598;2023-07-13T08:41:44;6.22;;;2.13;;
51883;SDS011;37915;53.254;6.598;2023-07-13T08:44:19;5.07;;;2.05;;
51883;SDS011;37915;53.254;6.598;2023-07-13T08:46:52;9.48;;;2.40;;
51883;SDS011;37915;53.254;6.598;2023-07-13T08:49:21;7.20;;;2.10;;
51883;SDS011;37915;53.254;6.598;2023-07-13T08:51:57;6.80;;;2.10;;
51883;SDS011;37915;53.254;6.598;2023-07-13T08:54:31;6.50;;;2.40;;
51883;SDS011;37915;53.254;6.598;2023-07-13T08:57:03;6.68;;;2.22;;
51883;SDS011;37915;53.254;6.598;2023-07-13T08:59:35;6.55;;;2.53;;
51883;SDS011;37915;53.254;6.598;2023-07-13T09:02:18;6.97;;;2.10;;
51883;SDS011;37915;53.254;6.598;2023-07-13T09:05:04;8.53;;;2.40;;
51883;SDS011;37915;53.254;6.598;2023-07-13T09:07:51;9.43;;;2.35;;
51883;SDS011;37915;53.254;6.598;2023-07-13T09:10:46;5.78;;;2.05;;
51883;SDS011;37915;53.254;6.598;2023-07-13T09:16:27;5.57;;;1.92;;
51883;SDS011;37915;53.254;6.598;2023-07-13T09:18:54;7.45;;;2.45;;
51883;SDS011;37915;53.254;6.598;2023-07-13T09:21:27;4.47;;;2.08;;
51883;SDS011;37915;53.254;6.598;2023-07-13T09:23:59;8.70;;;2.13;;
51883;SDS011;37915;53.254;6.598;2023-07-13T09:26:38;6.60;;;2.08;;
51883;SDS011;37915;53.254;6.598;2023-07-13T09:29:09;7.70;;;1.98;;
51883;SDS011;37915;53.254;6.598;2023-07-13T09:31:47;8.82;;;2.10;;
51883;SDS011;37915;53.254;6.598;2023-07-13T09:34:18;5.78;;;2.30;;
51883;SDS011;37915;53.254;6.598;2023-07-13T09:36:43;7.38;;;2.00;;
51883;SDS011;37915;53.254;6.598;2023-07-13T09:42:12;5.35;;;2.08;;
51883;SDS011;37915;53.254;6.598;2023-07-13T09:47:16;4.90;;;1.80;;
51883;SDS011;37915;53.254;6.598;2023-07-13T09:49:44;4.88;;;2.05;;
51883;SDS011;37915;53.254;6.598;2023-07-13T09:52:11;5.53;;;1.83;;
51883;SDS011;37915;53.254;6.598;2023-07-13T09:54:39;5.97;;;1.58;;
51883;SDS011;37915;53.254;6.598;2023-07-13T09:57:13;5.40;;;1.70;;
51883;SDS011;37915;53.254;6.598;2023-07-13T09:59:42;6.83;;;2.00;;
51883;SDS011;37915;53.254;6.598;2023-07-13T10:02:24;4.00;;;1.40;;
51883;SDS011;37915;53.254;6.598;2023-07-13T10:04:59;4.80;;;1.55;;
51883;SDS011;37915;53.254;6.598;2023-07-13T10:07:26;7.30;;;1.52;;
51883;SDS011;37915;53.254;6.598;2023-07-13T10:09:52;4.18;;;1.25;;
51883;SDS011;37915;53.254;6.598;2023-07-13T10:12:19;5.47;;;1.42;;
51883;SDS011;37915;53.254;6.598;2023-07-13T10:14:45;4.55;;;1.50;;
51883;SDS011;37915;53.254;6.598;2023-07-13T10:17:13;4.25;;;1.25;;
51883;SDS011;37915;53.254;6.598;2023-07-13T10:19:39;5.50;;;1.40;;
51883;SDS011;37915;53.254;6.598;2023-07-13T10:22:31;5.13;;;1.40;;
51883;SDS011;37915;53.254;6.598;2023-07-13T10:25:42;5.50;;;1.35;;
51883;SDS011;37915;53.254;6.598;2023-07-13T10:28:05;4.45;;;1.30;;
51883;SDS011;37915;53.254;6.598;2023-07-13T10:30:42;5.35;;;1.33;;
51883;SDS011;37915;53.254;6.598;2023-07-13T10:33:11;2.97;;;1.30;;
51883;SDS011;37915;53.254;6.598;2023-07-13T10:35:39;3.70;;;1.17;;
51883;SDS011;37915;53.254;6.598;2023-07-13T10:38:11;6.00;;;1.60;;
51883;SDS011;37915;53.254;6.598;2023-07-13T10:43:52;6.75;;;1.30;;
51883;SDS011;37915;53.254;6.598;2023-07-13T10:46:21;4.87;;;1.40;;
51883;SDS011;37915;53.254;6.598;2023-07-13T10:48:53;3.40;;;1.20;;
51883;SDS011;37915;53.254;6.598;2023-07-13T10:51:26;4.85;;;1.15;;
51883;SDS011;37915;53.254;6.598;2023-07-13T10:54:10;5.60;;;1.42;;
51883;SDS011;37915;53.254;6.598;2023-07-13T10:56:41;3.83;;;1.10;;
51883;SDS011;37915;53.254;6.598;2023-07-13T11:01:48;3.83;;;1.00;;
51883;SDS011;37915;53.254;6.598;2023-07-13T11:04:42;4.72;;;1.27;;
51883;SDS011;37915;53.254;6.598;2023-07-13T11:07:21;2.50;;;1.13;;
51883;SDS011;37915;53.254;6.598;2023-07-13T11:09:56;3.28;;;1.10;;
51883;SDS011;37915;53.254;6.598;2023-07-13T11:23:06;3.90;;;1.10;;
51883;SDS011;37915;53.254;6.598;2023-07-13T11:25:38;4.60;;;1.08;;
51883;SDS011;37915;53.254;6.598;2023-07-13T11:30:40;4.10;;;1.20;;
51883;SDS011;37915;53.254;6.598;2023-07-13T11:41:03;4.65;;;1.55;;
51883;SDS011;37915;53.254;6.598;2023-07-13T11:43:41;4.93;;;1.30;;
51883;SDS011;37915;53.254;6.598;2023-07-13T11:46:14;7.57;;;1.30;;
51883;SDS011;37915;53.254;6.598;2023-07-13T11:48:41;4.75;;;1.30;;
51883;SDS011;37915;53.254;6.598;2023-07-13T11:51:09;5.57;;;1.30;;
51883;SDS011;37915;53.254;6.598;2023-07-13T11:53:53;5.22;;;1.20;;
51883;SDS011;37915;53.254;6.598;2023-07-13T11:56:22;4.55;;;1.13;;
51883;SDS011;37915;53.254;6.598;2023-07-13T11:58:50;3.50;;;1.38;;
51883;SDS011;37915;53.254;6.598;2023-07-13T12:01:22;4.13;;;1.02;;
51883;SDS011;37915;53.254;6.598;2023-07-13T12:03:57;6.35;;;1.10;;
51883;SDS011;37915;53.254;6.598;2023-07-13T12:06:32;3.92;;;1.17;;
51883;SDS011;37915;53.254;6.598;2023-07-13T12:09:02;4.07;;;1.65;;
51883;SDS011;37915;53.254;6.598;2023-07-13T12:11:37;4.00;;;1.27;;
51883;SDS011;37915;53.254;6.598;2023-07-13T12:14:05;3.10;;;1.13;;
51883;SDS011;37915;53.254;6.598;2023-07-13T12:16:36;4.93;;;1.30;;
51883;SDS011;37915;53.254;6.598;2023-07-13T12:19:02;4.18;;;1.20;;
51883;SDS011;37915;53.254;6.598;2023-07-13T12:21:32;3.75;;;1.20;;
51883;SDS011;37915;53.254;6.598;2023-07-13T12:24:02;4.20;;;1.23;;
51883;SDS011;37915;53.254;6.598;2023-07-13T12:26:29;4.97;;;1.52;;
51883;SDS011;37915;53.254;6.598;2023-07-13T12:28:56;3.90;;;1.25;;
51883;SDS011;37915;53.254;6.598;2023-07-13T12:31:30;3.35;;;1.02;;
51883;SDS011;37915;53.254;6.598;2023-07-13T12:34:07;5.30;;;1.35;;
51883;SDS011;37915;53.254;6.598;2023-07-13T12:36:38;6.05;;;1.67;;
51883;SDS011;37915;53.254;6.598;2023-07-13T12:39:21;5.78;;;1.90;;
51883;SDS011;37915;53.254;6.598;2023-07-13T12:41:50;6.97;;;2.25;;
51883;SDS011;37915;53.254;6.598;2023-07-13T12:44:18;5.85;;;1.90;;
51883;SDS011;37915;53.254;6.598;2023-07-13T12:47:14;4.05;;;1.10;;
51883;SDS011;37915;53.254;6.598;2023-07-13T12:49:43;7.53;;;1.30;;
51883;SDS011;37915;53.254;6.598;2023-07-13T12:52:17;7.68;;;1.55;;
51883;SDS011;37915;53.254;6.598;2023-07-13T12:54:54;3.55;;;1.20;;
51883;SDS011;37915;53.254;6.598;2023-07-13T12:57:22;3.97;;;1.00;;
51883;SDS011;37915;53.254;6.598;2023-07-13T12:59:51;3.63;;;1.30;;
51883;SDS011;37915;53.254;6.598;2023-07-13T13:04:58;5.43;;;1.50;;
51883;SDS011;37915;53.254;6.598;2023-07-13T13:07:24;4.63;;;1.60;;
51883;SDS011;37915;53.254;6.598;2023-07-13T13:09:50;2.95;;;1.30;;
51883;SDS011;37915;53.254;6.598;2023-07-13T13:12:18;3.35;;;1.20;;
51883;SDS011;37915;53.254;6.598;2023-07-13T13:14:44;5.50;;;1.38;;
51883;SDS011;37915;53.254;6.598;2023-07-13T13:17:16;4.95;;;1.30;;
51883;SDS011;37915;53.254;6.598;2023-07-13T13:19:49;4.80;;;1.98;;
51883;SDS011;37915;53.254;6.598;2023-07-13T13:24:48;4.88;;;1.50;;
51883;SDS011;37915;53.254;6.598;2023-07-13T13:27:15;4.30;;;1.60;;
51883;SDS011;37915;53.254;6.598;2023-07-13T13:29:42;7.90;;;2.13;;
51883;SDS011;37915;53.254;6.598;2023-07-13T13:32:12;8.70;;;2.05;;
51883;SDS011;37915;53.254;6.598;2023-07-13T13:34:39;6.03;;;2.17;;
51883;SDS011;37915;53.254;6.598;2023-07-13T13:37:11;7.20;;;1.98;;
51883;SDS011;37915;53.254;6.598;2023-07-13T13:39:43;5.20;;;1.98;;
51883;SDS011;37915;53.254;6.598;2023-07-13T13:42:09;5.47;;;2.03;;
51883;SDS011;37915;53.254;6.598;2023-07-13T13:44:35;6.85;;;2.28;;
51883;SDS011;37915;53.254;6.598;2023-07-13T13:47:01;4.85;;;2.00;;
51883;SDS011;37915;53.254;6.598;2023-07-13T13:49:27;9.30;;;2.88;;
51883;SDS011;37915;53.254;6.598;2023-07-13T13:51:55;5.95;;;1.92;;
51883;SDS011;37915;53.254;6.598;2023-07-13T13:54:22;8.15;;;2.20;;
51883;SDS011;37915;53.254;6.598;2023-07-13T13:56:50;7.60;;;2.10;;
51883;SDS011;37915;53.254;6.598;2023-07-13T13:59:17;5.72;;;1.80;;
51883;SDS011;37915;53.254;6.598;2023-07-13T14:01:44;5.32;;;1.70;;
51883;SDS011;37915;53.254;6.598;2023-07-13T14:04:18;5.70;;;1.98;;
51883;SDS011;37915;53.254;6.598;2023-07-13T14:09:14;4.00;;;1.83;;
51883;SDS011;37915;53.254;6.598;2023-07-13T14:11:41;4.25;;;1.45;;
51883;SDS011;37915;53.254;6.598;2023-07-13T14:14:09;6.95;;;2.20;;
51883;SDS011;37915;53.254;6.598;2023-07-13T14:16:41;7.75;;;1.90;;
51883;SDS011;37915;53.254;6.598;2023-07-13T14:19:08;9.20;;;1.85;;
51883;SDS011;37915;53.254;6.598;2023-07-13T14:21:37;4.70;;;1.50;;
51883;SDS011;37915;53.254;6.598;2023-07-13T14:24:02;6.00;;;1.85;;
51883;SDS011;37915;53.254;6.598;2023-07-13T14:26:29;5.68;;;2.08;;
51883;SDS011;37915;53.254;6.598;2023-07-13T14:29:00;6.45;;;1.60;;
51883;SDS011;37915;53.254;6.598;2023-07-13T14:31:26;3.88;;;1.33;;
51883;SDS011;37915;53.254;6.598;2023-07-13T14:33:55;4.15;;;1.60;;
51883;SDS011;37915;53.254;6.598;2023-07-13T14:38:49;8.13;;;1.73;;
51883;SDS011;37915;53.254;6.598;2023-07-13T14:41:15;5.68;;;1.65;;
51883;SDS011;37915;53.254;6.598;2023-07-13T14:43:41;3.38;;;1.60;;
51883;SDS011;37915;53.254;6.598;2023-07-13T14:46:08;5.93;;;1.60;;
51883;SDS011;37915;53.254;6.598;2023-07-13T14:48:49;4.85;;;1.42;;
51883;SDS011;37915;53.254;6.598;2023-07-13T14:51:15;5.55;;;1.48;;
51883;SDS011;37915;53.254;6.598;2023-07-13T14:53:41;6.65;;;2.08;;
51883;SDS011;37915;53.254;6.598;2023-07-13T14:56:13;5.63;;;1.70;;
51883;SDS011;37915;53.254;6.598;2023-07-13T14:58:39;5.55;;;1.70;;
51883;SDS011;37915;53.254;6.598;2023-07-13T15:01:09;5.78;;;1.90;;
51883;SDS011;37915;53.254;6.598;2023-07-13T15:03:39;7.03;;;3.47;;
51883;SDS011;37915;53.254;6.598;2023-07-13T15:06:10;7.32;;;2.53;;
51883;SDS011;37915;53.254;6.598;2023-07-13T15:08:36;8.43;;;3.05;;
51883;SDS011;37915;53.254;6.598;2023-07-13T15:11:02;7.32;;;2.60;;
51883;SDS011;37915;53.254;6.598;2023-07-13T15:13:30;4.22;;;2.08;;
51883;SDS011;37915;53.254;6.598;2023-07-13T15:15:55;7.32;;;2.47;;
51883;SDS011;37915;53.254;6.598;2023-07-13T15:18:22;8.82;;;2.60;;
51883;SDS011;37915;53.254;6.598;2023-07-13T15:20:50;10.93;;;2.20;;
51883;SDS011;37915;53.254;6.598;2023-07-13T15:23:17;7.88;;;2.45;;
51883;SDS011;37915;53.254;6.598;2023-07-13T15:25:43;4.97;;;2.00;;
51883;SDS011;37915;53.254;6.598;2023-07-13T15:28:10;7.72;;;2.38;;
51883;SDS011;37915;53.254;6.598;2023-07-13T15:30:47;7.07;;;1.85;;
51883;SDS011;37915;53.254;6.598;2023-07-13T15:33:22;8.48;;;2.30;;
51883;SDS011;37915;53.254;6.598;2023-07-13T15:35:48;9.43;;;2.10;;